sensor_id;sensor_type;location;lat;lon;timestamp;temperature;humidity
2024;DHT22;1016;48.770;9.154;2023-03-09T00:01:20;11.50;99.90
2024;DHT22;1016;48.770;9.154;2023-03-09T00:03:46;11.50;99.90
2024;DHT22;1016;48.770;9.154;2023-03-09T00:06:12;11.50;99.90
2024;DHT22;1016;48.770;9.154;2023-03-09T00:08:37;11.50;99.90
2024;DHT22;1016;48.770;9.154;2023-03-09T00:11:04;11.50;99.90
2024;DHT22;1016;48.770;9.154;2023-03-09T00:13:30;11.50;99.90
2024;DHT22;1016;48.770;9.154;2023-03-09T00:15:56;11.50;99.90
2024;DHT22;1016;48.770;9.154;2023-03-09T00:18:22;11.60;99.90
2024;DHT22;1016;48.770;9.154;2023-03-09T00:20:48;11.80;99.90
2024;DHT22;1016;48.770;9.154;2023-03-09T00:23:14;11.60;99.90
2024;DHT22;1016;48.770;9.154;2023-03-09T00:25:44;11.60;99.90
2024;DHT22;1016;48.770;9.154;2023-03-09T00:28:10;11.60;99.90
2024;DHT22;1016;48.770;9.154;2023-03-09T00:30:35;11.60;99.90
2024;DHT22;1016;48.770;9.154;2023-03-09T00:33:01;11.60;99.90
2024;DHT22;1016;48.770;9.154;2023-03-09T00:35:26;11.60;99.90
2024;DHT22;1016;48.770;9.154;2023-03-09T00:37:52;11.60;99.90
2024;DHT22;1016;48.770;9.154;2023-03-09T00:40:18;11.70;99.90
2024;DHT22;1016;48.770;9.154;2023-03-09T00:42:44;11.80;99.90
2024;DHT22;1016;48.770;9.154;2023-03-09T00:45:11;11.70;99.90
2024;DHT22;1016;48.770;9.154;2023-03-09T00:47:38;11.80;99.90
2024;DHT22;1016;48.770;9.154;2023-03-09T00:50:04;11.70;99.90
2024;DHT22;1016;48.770;9.154;2023-03-09T00:52:31;11.70;99.90
2024;DHT22;1016;48.770;9.154;2023-03-09T00:54:57;11.70;99.90
2024;DHT22;1016;48.770;9.154;2023-03-09T00:57:23;11.70;99.90
2024;DHT22;1016;48.770;9.154;2023-03-09T00:59:49;11.70;99.90
2024;DHT22;1016;48.770;9.154;2023-03-09T01:02:21;11.70;99.90
2024;DHT22;1016;48.770;9.154;2023-03-09T01:04:48;11.70;99.90
2024;DHT22;1016;48.770;9.154;2023-03-09T01:07:13;11.70;99.90
2024;DHT22;1016;48.770;9.154;2023-03-09T01:09:39;11.60;99.90
2024;DHT22;1016;48.770;9.154;2023-03-09T01:12:06;11.60;99.90
2024;DHT22;1016;48.770;9.154;2023-03-09T01:14:32;11.60;99.90
2024;DHT22;1016;48.770;9.154;2023-03-09T01:16:58;11.50;99.90
2024;DHT22;1016;48.770;9.154;2023-03-09T01:19:23;11.50;99.90
2024;DHT22;1016;48.770;9.154;2023-03-09T01:21:49;11.50;99.90
2024;DHT22;1016;48.770;9.154;2023-03-09T01:24:14;11.40;99.90
2024;DHT22;1016;48.770;9.154;2023-03-09T01:26:40;11.40;99.90
2024;DHT22;1016;48.770;9.154;2023-03-09T01:29:05;11.30;99.90
2024;DHT22;1016;48.770;9.154;2023-03-09T01:31:31;11.20;99.90
2024;DHT22;1016;48.770;9.154;2023-03-09T01:33:57;11.20;99.90
2024;DHT22;1016;48.770;9.154;2023-03-09T01:36:22;11.20;99.90
2024;DHT22;1016;48.770;9.154;2023-03-09T01:38:48;11.20;99.90
2024;DHT22;1016;48.770;9.154;2023-03-09T01:41:15;11.10;99.90
2024;DHT22;1016;48.770;9.154;2023-03-09T01:43:46;11.20;99.90
2024;DHT22;1016;48.770;9.154;2023-03-09T01:46:31;11.20;99.90
2024;DHT22;1016;48.770;9.154;2023-03-09T01:49:16;11.20;99.90
2024;DHT22;1016;48.770;9.154;2023-03-09T01:51:47;11.20;99.90
2024;DHT22;1016;48.770;9.154;2023-03-09T01:57:21;11.10;99.90
2024;DHT22;1016;48.770;9.154;2023-03-09T01:59:49;11.00;99.90
2024;DHT22;1016;48.770;9.154;2023-03-09T02:02:17;11.10;99.90
2024;DHT22;1016;48.770;9.154;2023-03-09T02:04:50;11.00;99.90
2024;DHT22;1016;48.770;9.154;2023-03-09T02:07:21;11.00;99.90
2024;DHT22;1016;48.770;9.154;2023-03-09T02:09:55;11.00;99.90
2024;DHT22;1016;48.770;9.154;2023-03-09T02:12:24;11.10;99.90
2024;DHT22;1016;48.770;9.154;2023-03-09T02:14:51;11.00;99.90
2024;DHT22;1016;48.770;9.154;2023-03-09T02:17:17;11.00;99.90
2024;DHT22;1016;48.770;9.154;2023-03-09T02:19:53;11.00;99.90
2024;DHT22;1016;48.770;9.154;2023-03-09T02:22:20;11.00;99.90
2024;DHT22;1016;48.770;9.154;2023-03-09T02:24:53;10.90;99.90
2024;DHT22;1016;48.770;9.154;2023-03-09T02:27:21;11.00;99.90
2024;DHT22;1016;48.770;9.154;2023-03-09T02:29:48;10.90;99.90
2024;DHT22;1016;48.770;9.154;2023-03-09T02:32:14;11.00;99.90
2024;DHT22;1016;48.770;9.154;2023-03-09T02:34:40;10.90;99.90
2024;DHT22;1016;48.770;9.154;2023-03-09T02:37:32;10.90;99.90
2024;DHT22;1016;48.770;9.154;2023-03-09T02:40:02;10.80;99.90
2024;DHT22;1016;48.770;9.154;2023-03-09T02:42:30;10.80;99.90
2024;DHT22;1016;48.770;9.154;2023-03-09T02:44:56;10.80;99.90
2024;DHT22;1016;48.770;9.154;2023-03-09T02:47:23;10.80;99.90
2024;DHT22;1016;48.770;9.154;2023-03-09T02:49:48;10.80;99.90
2024;DHT22;1016;48.770;9.154;2023-03-09T02:52:14;10.80;99.90
2024;DHT22;1016;48.770;9.154;2023-03-09T02:54:39;10.80;99.90
2024;DHT22;1016;48.770;9.154;2023-03-09T02:57:05;10.90;99.90
2024;DHT22;1016;48.770;9.154;2023-03-09T02:59:31;10.80;99.90
2024;DHT22;1016;48.770;9.154;2023-03-09T03:01:57;10.80;99.90
2024;DHT22;1016;48.770;9.154;2023-03-09T03:04:22;10.90;99.90
2024;DHT22;1016;48.770;9.154;2023-03-09T03:06:48;11.00;99.90
2024;DHT22;1016;48.770;9.154;2023-03-09T03:09:13;10.80;99.90
2024;DHT22;1016;48.770;9.154;2023-03-09T03:11:39;10.90;99.90
2024;DHT22;1016;48.770;9.154;2023-03-09T03:14:04;10.90;99.90
2024;DHT22;1016;48.770;9.154;2023-03-09T03:16:30;10.90;99.90
2024;DHT22;1016;48.770;9.154;2023-03-09T03:18:58;10.90;99.90
2024;DHT22;1016;48.770;9.154;2023-03-09T03:21:23;10.90;99.90
2024;DHT22;1016;48.770;9.154;2023-03-09T03:23:49;10.90;99.90
2024;DHT22;1016;48.770;9.154;2023-03-09T03:26:15;11.10;99.90
2024;DHT22;1016;48.770;9.154;2023-03-09T03:28:41;11.00;99.90
2024;DHT22;1016;48.770;9.154;2023-03-09T03:31:07;11.10;99.90
2024;DHT22;1016;48.770;9.154;2023-03-09T03:33:32;11.20;99.90
2024;DHT22;1016;48.770;9.154;2023-03-09T03:35:58;11.10;99.90
2024;DHT22;1016;48.770;9.154;2023-03-09T03:38:23;11.10;99.90
2024;DHT22;1016;48.770;9.154;2023-03-09T03:40:49;11.00;99.90
2024;DHT22;1016;48.770;9.154;2023-03-09T03:43:15;11.10;99.90
2024;DHT22;1016;48.770;9.154;2023-03-09T03:45:40;11.00;99.90
2024;DHT22;1016;48.770;9.154;2023-03-09T03:48:06;10.90;99.90
2024;DHT22;1016;48.770;9.154;2023-03-09T03:50:31;10.80;99.90
2024;DHT22;1016;48.770;9.154;2023-03-09T03:52:57;10.90;99.90
2024;DHT22;1016;48.770;9.154;2023-03-09T03:55:23;10.90;99.90
2024;DHT22;1016;48.770;9.154;2023-03-09T03:57:48;10.80;99.90
2024;DHT22;1016;48.770;9.154;2023-03-09T04:00:14;10.80;99.90
2024;DHT22;1016;48.770;9.154;2023-03-09T04:02:40;10.80;99.90
2024;DHT22;1016;48.770;9.154;2023-03-09T04:05:06;10.80;99.90
2024;DHT22;1016;48.770;9.154;2023-03-09T04:07:32;10.70;99.90
2024;DHT22;1016;48.770;9.154;2023-03-09T04:09:58;10.60;99.90
2024;DHT22;1016;48.770;9.154;2023-03-09T04:12:24;10.70;99.90
2024;DHT22;1016;48.770;9.154;2023-03-09T04:14:49;10.60;99.90
2024;DHT22;1016;48.770;9.154;2023-03-09T04:17:15;10.70;99.90
2024;DHT22;1016;48.770;9.154;2023-03-09T04:19:40;10.70;99.90
2024;DHT22;1016;48.770;9.154;2023-03-09T04:22:06;10.70;99.90
2024;DHT22;1016;48.770;9.154;2023-03-09T04:24:34;10.70;99.90
2024;DHT22;1016;48.770;9.154;2023-03-09T04:27:00;10.60;99.90
2024;DHT22;1016;48.770;9.154;2023-03-09T04:29:25;10.50;99.90
2024;DHT22;1016;48.770;9.154;2023-03-09T04:31:50;10.60;99.90
2024;DHT22;1016;48.770;9.154;2023-03-09T04:34:16;10.60;99.90
2024;DHT22;1016;48.770;9.154;2023-03-09T04:36:42;10.60;99.90
2024;DHT22;1016;48.770;9.154;2023-03-09T04:39:08;10.60;99.90
2024;DHT22;1016;48.770;9.154;2023-03-09T04:41:35;10.60;99.90
2024;DHT22;1016;48.770;9.154;2023-03-09T04:44:00;10.70;99.90
2024;DHT22;1016;48.770;9.154;2023-03-09T04:46:26;10.70;99.90
2024;DHT22;1016;48.770;9.154;2023-03-09T04:48:52;10.70;99.90
2024;DHT22;1016;48.770;9.154;2023-03-09T04:51:17;10.70;99.90
2024;DHT22;1016;48.770;9.154;2023-03-09T04:53:42;10.70;99.90
2024;DHT22;1016;48.770;9.154;2023-03-09T04:56:08;10.60;99.90
2024;DHT22;1016;48.770;9.154;2023-03-09T04:58:34;10.70;99.90
2024;DHT22;1016;48.770;9.154;2023-03-09T05:00:59;10.70;99.90
2024;DHT22;1016;48.770;9.154;2023-03-09T05:03:27;10.70;99.90
2024;DHT22;1016;48.770;9.154;2023-03-09T05:05:53;10.70;99.90
2024;DHT22;1016;48.770;9.154;2023-03-09T05:08:18;10.70;99.90
2024;DHT22;1016;48.770;9.154;2023-03-09T05:10:44;10.70;99.90
2024;DHT22;1016;48.770;9.154;2023-03-09T05:13:09;10.70;99.90
2024;DHT22;1016;48.770;9.154;2023-03-09T05:15:40;10.70;99.90
2024;DHT22;1016;48.770;9.154;2023-03-09T05:18:07;10.70;99.90
2024;DHT22;1016;48.770;9.154;2023-03-09T05:20:32;10.70;99.90
2024;DHT22;1016;48.770;9.154;2023-03-09T05:22:59;10.70;99.90
2024;DHT22;1016;48.770;9.154;2023-03-09T05:25:24;10.70;99.90
2024;DHT22;1016;48.770;9.154;2023-03-09T05:27:50;10.80;99.90
2024;DHT22;1016;48.770;9.154;2023-03-09T05:30:16;10.70;99.90
2024;DHT22;1016;48.770;9.154;2023-03-09T05:32:42;10.70;99.90
2024;DHT22;1016;48.770;9.154;2023-03-09T05:35:08;10.60;99.90
2024;DHT22;1016;48.770;9.154;2023-03-09T05:37:34;10.70;99.90
2024;DHT22;1016;48.770;9.154;2023-03-09T05:40:00;10.70;99.90
2024;DHT22;1016;48.770;9.154;2023-03-09T05:42:26;10.80;99.90
2024;DHT22;1016;48.770;9.154;2023-03-09T05:44:51;10.60;99.90
2024;DHT22;1016;48.770;9.154;2023-03-09T05:47:17;10.60;99.90
2024;DHT22;1016;48.770;9.154;2023-03-09T05:49:42;10.70;99.90
2024;DHT22;1016;48.770;9.154;2023-03-09T05:52:08;10.60;99.90
2024;DHT22;1016;48.770;9.154;2023-03-09T05:54:34;10.60;99.90
2024;DHT22;1016;48.770;9.154;2023-03-09T05:57:00;10.80;99.90
2024;DHT22;1016;48.770;9.154;2023-03-09T05:59:25;10.70;99.90
2024;DHT22;1016;48.770;9.154;2023-03-09T06:01:51;10.80;99.90
2024;DHT22;1016;48.770;9.154;2023-03-09T06:04:16;10.80;99.90
2024;DHT22;1016;48.770;9.154;2023-03-09T06:06:42;10.70;99.90
2024;DHT22;1016;48.770;9.154;2023-03-09T06:09:08;10.80;99.90
2024;DHT22;1016;48.770;9.154;2023-03-09T06:11:34;10.80;99.90
2024;DHT22;1016;48.770;9.154;2023-03-09T06:13:59;10.70;99.90
2024;DHT22;1016;48.770;9.154;2023-03-09T06:16:25;10.70;99.90
2024;DHT22;1016;48.770;9.154;2023-03-09T06:18:54;10.70;99.90
2024;DHT22;1016;48.770;9.154;2023-03-09T06:21:20;10.70;99.90
2024;DHT22;1016;48.770;9.154;2023-03-09T06:23:46;10.80;99.90
2024;DHT22;1016;48.770;9.154;2023-03-09T06:26:11;10.80;99.90
2024;DHT22;1016;48.770;9.154;2023-03-09T06:28:37;10.80;99.90
2024;DHT22;1016;48.770;9.154;2023-03-09T06:31:08;10.80;99.90
2024;DHT22;1016;48.770;9.154;2023-03-09T06:33:37;10.80;99.90
2024;DHT22;1016;48.770;9.154;2023-03-09T06:36:03;10.80;99.90
2024;DHT22;1016;48.770;9.154;2023-03-09T06:38:29;10.90;99.90
2024;DHT22;1016;48.770;9.154;2023-03-09T06:40:55;10.90;99.90
2024;DHT22;1016;48.770;9.154;2023-03-09T06:43:21;10.90;99.90
2024;DHT22;1016;48.770;9.154;2023-03-09T06:45:47;10.90;99.90
2024;DHT22;1016;48.770;9.154;2023-03-09T06:48:12;10.90;99.90
2024;DHT22;1016;48.770;9.154;2023-03-09T06:50:38;11.00;99.90
2024;DHT22;1016;48.770;9.154;2023-03-09T06:53:03;10.90;99.90
2024;DHT22;1016;48.770;9.154;2023-03-09T06:55:29;10.90;99.90
2024;DHT22;1016;48.770;9.154;2023-03-09T06:57:55;10.90;99.90
2024;DHT22;1016;48.770;9.154;2023-03-09T07:00:20;10.90;99.90
2024;DHT22;1016;48.770;9.154;2023-03-09T07:02:46;11.00;99.90
2024;DHT22;1016;48.770;9.154;2023-03-09T07:05:12;11.00;99.90
2024;DHT22;1016;48.770;9.154;2023-03-09T07:07:38;11.00;99.90
2024;DHT22;1016;48.770;9.154;2023-03-09T07:10:05;11.00;99.90
2024;DHT22;1016;48.770;9.154;2023-03-09T07:12:31;11.00;99.90
2024;DHT22;1016;48.770;9.154;2023-03-09T07:14:56;11.10;99.90
2024;DHT22;1016;48.770;9.154;2023-03-09T07:17:22;11.10;99.90
2024;DHT22;1016;48.770;9.154;2023-03-09T07:19:47;11.10;99.90
2024;DHT22;1016;48.770;9.154;2023-03-09T07:22:13;11.20;99.90
2024;DHT22;1016;48.770;9.154;2023-03-09T07:24:39;11.20;99.90
2024;DHT22;1016;48.770;9.154;2023-03-09T07:27:05;11.30;99.90
2024;DHT22;1016;48.770;9.154;2023-03-09T07:29:31;11.30;99.90
2024;DHT22;1016;48.770;9.154;2023-03-09T07:31:56;11.30;99.90
2024;DHT22;1016;48.770;9.154;2023-03-09T07:34:22;11.40;99.90
2024;DHT22;1016;48.770;9.154;2023-03-09T07:36:48;11.40;99.90
2024;DHT22;1016;48.770;9.154;2023-03-09T07:39:14;11.50;99.90
2024;DHT22;1016;48.770;9.154;2023-03-09T07:41:41;11.50;99.90
2024;DHT22;1016;48.770;9.154;2023-03-09T07:44:06;11.50;99.90
2024;DHT22;1016;48.770;9.154;2023-03-09T07:46:32;11.60;99.90
2024;DHT22;1016;48.770;9.154;2023-03-09T07:48:57;11.70;99.90
2024;DHT22;1016;48.770;9.154;2023-03-09T07:51:23;11.80;99.90
2024;DHT22;1016;48.770;9.154;2023-03-09T07:53:48;11.70;99.90
2024;DHT22;1016;48.770;9.154;2023-03-09T07:56:14;11.80;99.90
2024;DHT22;1016;48.770;9.154;2023-03-09T07:58:40;11.80;99.90
2024;DHT22;1016;48.770;9.154;2023-03-09T08:01:07;11.90;99.90
2024;DHT22;1016;48.770;9.154;2023-03-09T08:03:36;12.00;99.90
2024;DHT22;1016;48.770;9.154;2023-03-09T08:06:02;12.00;99.90
2024;DHT22;1016;48.770;9.154;2023-03-09T08:08:32;12.10;99.90
2024;DHT22;1016;48.770;9.154;2023-03-09T08:10:57;12.20;99.90
2024;DHT22;1016;48.770;9.154;2023-03-09T08:13:24;12.20;99.90
2024;DHT22;1016;48.770;9.154;2023-03-09T08:15:50;12.20;99.90
2024;DHT22;1016;48.770;9.154;2023-03-09T08:18:17;12.20;99.90
2024;DHT22;1016;48.770;9.154;2023-03-09T08:20:43;12.30;99.90
2024;DHT22;1016;48.770;9.154;2023-03-09T08:23:09;12.40;99.90
2024;DHT22;1016;48.770;9.154;2023-03-09T08:25:34;12.40;99.90
2024;DHT22;1016;48.770;9.154;2023-03-09T08:28:00;12.40;99.90
2024;DHT22;1016;48.770;9.154;2023-03-09T08:30:26;12.50;99.90
2024;DHT22;1016;48.770;9.154;2023-03-09T08:32:53;12.60;99.90
2024;DHT22;1016;48.770;9.154;2023-03-09T08:35:21;12.60;99.90
2024;DHT22;1016;48.770;9.154;2023-03-09T08:37:47;12.60;99.90
2024;DHT22;1016;48.770;9.154;2023-03-09T08:40:14;12.60;99.90
2024;DHT22;1016;48.770;9.154;2023-03-09T08:42:40;12.60;99.90
2024;DHT22;1016;48.770;9.154;2023-03-09T08:45:06;12.60;99.90
2024;DHT22;1016;48.770;9.154;2023-03-09T08:47:33;12.60;99.90
2024;DHT22;1016;48.770;9.154;2023-03-09T08:49:59;12.70;99.90
2024;DHT22;1016;48.770;9.154;2023-03-09T08:52:24;12.70;99.90
2024;DHT22;1016;48.770;9.154;2023-03-09T08:54:50;12.70;99.90
2024;DHT22;1016;48.770;9.154;2023-03-09T08:57:16;12.70;99.90
2024;DHT22;1016;48.770;9.154;2023-03-09T08:59:42;12.80;99.90
2024;DHT22;1016;48.770;9.154;2023-03-09T09:02:11;12.80;99.90
2024;DHT22;1016;48.770;9.154;2023-03-09T09:04:43;12.80;99.90
2024;DHT22;1016;48.770;9.154;2023-03-09T09:07:13;12.90;99.90
2024;DHT22;1016;48.770;9.154;2023-03-09T09:09:40;12.90;99.90
2024;DHT22;1016;48.770;9.154;2023-03-09T09:12:06;12.90;99.90
2024;DHT22;1016;48.770;9.154;2023-03-09T09:14:33;12.80;99.90
2024;DHT22;1016;48.770;9.154;2023-03-09T09:16:59;12.80;99.90
2024;DHT22;1016;48.770;9.154;2023-03-09T09:19:26;12.80;99.90
2024;DHT22;1016;48.770;9.154;2023-03-09T09:21:52;12.60;99.90
2024;DHT22;1016;48.770;9.154;2023-03-09T09:24:18;12.50;99.90
2024;DHT22;1016;48.770;9.154;2023-03-09T09:26:44;12.40;99.90
2024;DHT22;1016;48.770;9.154;2023-03-09T09:29:10;12.40;99.90
2024;DHT22;1016;48.770;9.154;2023-03-09T09:31:36;12.30;99.90
2024;DHT22;1016;48.770;9.154;2023-03-09T09:34:01;12.40;99.90
2024;DHT22;1016;48.770;9.154;2023-03-09T09:36:27;12.40;99.90
2024;DHT22;1016;48.770;9.154;2023-03-09T09:38:53;12.40;99.90
2024;DHT22;1016;48.770;9.154;2023-03-09T09:44:05;12.50;99.90
2024;DHT22;1016;48.770;9.154;2023-03-09T09:46:35;12.50;99.90
2024;DHT22;1016;48.770;9.154;2023-03-09T09:49:01;12.50;99.90
2024;DHT22;1016;48.770;9.154;2023-03-09T09:57:03;12.50;99.90
2024;DHT22;1016;48.770;9.154;2023-03-09T09:59:33;12.40;99.90
2024;DHT22;1016;48.770;9.154;2023-03-09T10:04:44;12.40;99.90
2024;DHT22;1016;48.770;9.154;2023-03-09T10:07:16;12.50;99.90
2024;DHT22;1016;48.770;9.154;2023-03-09T10:09:44;12.40;99.90
2024;DHT22;1016;48.770;9.154;2023-03-09T10:12:14;12.40;99.90
2024;DHT22;1016;48.770;9.154;2023-03-09T10:17:29;12.50;99.90
2024;DHT22;1016;48.770;9.154;2023-03-09T10:20:01;12.50;99.90
2024;DHT22;1016;48.770;9.154;2023-03-09T10:22:27;12.60;99.90
2024;DHT22;1016;48.770;9.154;2023-03-09T10:24:55;12.60;99.90
2024;DHT22;1016;48.770;9.154;2023-03-09T10:30:21;12.50;99.90
2024;DHT22;1016;48.770;9.154;2023-03-09T10:32:55;12.70;99.90
2024;DHT22;1016;48.770;9.154;2023-03-09T10:35:36;12.80;99.90
2024;DHT22;1016;48.770;9.154;2023-03-09T10:38:11;12.90;99.90
2024;DHT22;1016;48.770;9.154;2023-03-09T10:40:51;13.00;99.90
2024;DHT22;1016;48.770;9.154;2023-03-09T10:43:30;13.00;99.90
2024;DHT22;1016;48.770;9.154;2023-03-09T10:48:42;13.10;99.90
2024;DHT22;1016;48.770;9.154;2023-03-09T10:53:52;13.10;99.90
2024;DHT22;1016;48.770;9.154;2023-03-09T10:59:10;13.10;99.90
2024;DHT22;1016;48.770;9.154;2023-03-09T11:01:48;13.10;99.90
2024;DHT22;1016;48.770;9.154;2023-03-09T11:06:52;13.20;99.90
2024;DHT22;1016;48.770;9.154;2023-03-09T11:09:30;13.30;99.90
2024;DHT22;1016;48.770;9.154;2023-03-09T11:12:34;13.20;99.90
2024;DHT22;1016;48.770;9.154;2023-03-09T11:15:12;13.20;99.90
2024;DHT22;1016;48.770;9.154;2023-03-09T11:17:48;13.30;99.90
2024;DHT22;1016;48.770;9.154;2023-03-09T11:25:53;13.60;99.90
2024;DHT22;1016;48.770;9.154;2023-03-09T11:31:14;13.80;99.90
2024;DHT22;1016;48.770;9.154;2023-03-09T11:33:41;13.80;99.90
2024;DHT22;1016;48.770;9.154;2023-03-09T11:36:11;13.80;99.90
2024;DHT22;1016;48.770;9.154;2023-03-09T11:38:40;13.80;99.90
2024;DHT22;1016;48.770;9.154;2023-03-09T11:41:23;13.90;99.90
2024;DHT22;1016;48.770;9.154;2023-03-09T11:44:00;14.00;99.90
2024;DHT22;1016;48.770;9.154;2023-03-09T11:46:26;13.90;99.90
2024;DHT22;1016;48.770;9.154;2023-03-09T11:49:07;14.00;99.90
2024;DHT22;1016;48.770;9.154;2023-03-09T11:51:45;14.00;99.90
2024;DHT22;1016;48.770;9.154;2023-03-09T11:56:48;14.10;99.90
2024;DHT22;1016;48.770;9.154;2023-03-09T11:59:16;14.20;99.90
2024;DHT22;1016;48.770;9.154;2023-03-09T12:04:16;14.30;99.90
2024;DHT22;1016;48.770;9.154;2023-03-09T12:06:53;14.30;99.90
2024;DHT22;1016;48.770;9.154;2023-03-09T12:09:29;14.20;99.90
2024;DHT22;1016;48.770;9.154;2023-03-09T12:12:02;14.30;99.90
2024;DHT22;1016;48.770;9.154;2023-03-09T12:14:34;14.30;99.90
2024;DHT22;1016;48.770;9.154;2023-03-09T12:17:18;14.30;99.90
2024;DHT22;1016;48.770;9.154;2023-03-09T12:19:48;14.40;99.90
2024;DHT22;1016;48.770;9.154;2023-03-09T12:22:25;14.30;99.90
2024;DHT22;1016;48.770;9.154;2023-03-09T12:24:56;14.30;99.90
2024;DHT22;1016;48.770;9.154;2023-03-09T12:27:24;14.30;99.90
2024;DHT22;1016;48.770;9.154;2023-03-09T12:34:56;14.30;99.90
2024;DHT22;1016;48.770;9.154;2023-03-09T12:39:58;14.50;99.90
2024;DHT22;1016;48.770;9.154;2023-03-09T12:42:38;14.50;99.90
2024;DHT22;1016;48.770;9.154;2023-03-09T12:47:47;15.00;99.90
2024;DHT22;1016;48.770;9.154;2023-03-09T12:50:21;15.40;99.90
2024;DHT22;1016;48.770;9.154;2023-03-09T12:53:15;15.60;99.90
2024;DHT22;1016;48.770;9.154;2023-03-09T13:01:02;15.30;99.90
2024;DHT22;1016;48.770;9.154;2023-03-09T13:06:29;15.10;99.90
2024;DHT22;1016;48.770;9.154;2023-03-09T13:09:00;15.10;99.90
2024;DHT22;1016;48.770;9.154;2023-03-09T13:14:09;15.10;99.90
2024;DHT22;1016;48.770;9.154;2023-03-09T13:29:57;14.80;99.90
2024;DHT22;1016;48.770;9.154;2023-03-09T13:32:33;14.60;99.90
2024;DHT22;1016;48.770;9.154;2023-03-09T13:35:38;14.60;99.90
2024;DHT22;1016;48.770;9.154;2023-03-09T13:37:58;14.60;99.90
2024;DHT22;1016;48.770;9.154;2023-03-09T13:40:33;14.50;99.90
2024;DHT22;1016;48.770;9.154;2023-03-09T13:43:02;14.40;99.90
2024;DHT22;1016;48.770;9.154;2023-03-09T13:45:31;14.40;99.90
2024;DHT22;1016;48.770;9.154;2023-03-09T13:48:12;14.30;99.90
2024;DHT22;1016;48.770;9.154;2023-03-09T13:50:43;14.20;99.90
2024;DHT22;1016;48.770;9.154;2023-03-09T13:55:41;14.10;99.90
2024;DHT22;1016;48.770;9.154;2023-03-09T14:00:52;13.90;99.90
2024;DHT22;1016;48.770;9.154;2023-03-09T14:03:18;13.90;99.90
2024;DHT22;1016;48.770;9.154;2023-03-09T14:05:53;13.90;99.90
2024;DHT22;1016;48.770;9.154;2023-03-09T14:08:21;14.30;99.90
2024;DHT22;1016;48.770;9.154;2023-03-09T14:10:48;15.40;99.90
2024;DHT22;1016;48.770;9.154;2023-03-09T14:13:23;15.90;99.90
2024;DHT22;1016;48.770;9.154;2023-03-09T14:16:00;16.00;99.90
2024;DHT22;1016;48.770;9.154;2023-03-09T14:18:51;15.70;99.90
2024;DHT22;1016;48.770;9.154;2023-03-09T14:23:46;15.10;99.90
2024;DHT22;1016;48.770;9.154;2023-03-09T14:26:11;14.90;99.90
2024;DHT22;1016;48.770;9.154;2023-03-09T14:28:40;15.00;99.90
2024;DHT22;1016;48.770;9.154;2023-03-09T14:31:19;16.30;99.90
2024;DHT22;1016;48.770;9.154;2023-03-09T14:36:27;15.80;99.90
2024;DHT22;1016;48.770;9.154;2023-03-09T14:38:58;15.50;99.90
2024;DHT22;1016;48.770;9.154;2023-03-09T14:41:29;15.40;99.90
2024;DHT22;1016;48.770;9.154;2023-03-09T14:43:55;15.30;99.90
2024;DHT22;1016;48.770;9.154;2023-03-09T14:46:26;15.50;99.90
2024;DHT22;1016;48.770;9.154;2023-03-09T14:49:00;15.60;99.90
2024;DHT22;1016;48.770;9.154;2023-03-09T14:51:36;15.90;99.90
2024;DHT22;1016;48.770;9.154;2023-03-09T14:54:14;16.40;99.90
2024;DHT22;1016;48.770;9.154;2023-03-09T14:56:40;16.20;99.90
2024;DHT22;1016;48.770;9.154;2023-03-09T14:59:23;16.20;99.90
2024;DHT22;1016;48.770;9.154;2023-03-09T15:01:56;16.50;99.90
2024;DHT22;1016;48.770;9.154;2023-03-09T15:04:24;17.40;99.90
2024;DHT22;1016;48.770;9.154;2023-03-09T15:06:49;17.90;99.90
2024;DHT22;1016;48.770;9.154;2023-03-09T15:09:17;17.60;99.90
2024;DHT22;1016;48.770;9.154;2023-03-09T15:11:44;17.40;99.90
2024;DHT22;1016;48.770;9.154;2023-03-09T15:14:15;17.70;99.90
2024;DHT22;1016;48.770;9.154;2023-03-09T15:16:43;18.00;99.90
2024;DHT22;1016;48.770;9.154;2023-03-09T15:19:15;18.10;99.90
2024;DHT22;1016;48.770;9.154;2023-03-09T15:21:41;17.60;99.90
2024;DHT22;1016;48.770;9.154;2023-03-09T15:24:09;17.20;99.90
2024;DHT22;1016;48.770;9.154;2023-03-09T15:26:35;16.90;99.90
2024;DHT22;1016;48.770;9.154;2023-03-09T15:29:00;16.60;99.90
2024;DHT22;1016;48.770;9.154;2023-03-09T15:31:26;16.40;99.90
2024;DHT22;1016;48.770;9.154;2023-03-09T15:33:51;16.30;99.90
2024;DHT22;1016;48.770;9.154;2023-03-09T15:36:17;16.10;99.90
2024;DHT22;1016;48.770;9.154;2023-03-09T15:38:42;15.90;99.90
2024;DHT22;1016;48.770;9.154;2023-03-09T15:41:09;15.60;99.90
2024;DHT22;1016;48.770;9.154;2023-03-09T15:43:35;15.50;99.90
2024;DHT22;1016;48.770;9.154;2023-03-09T15:46:04;15.20;99.90
2024;DHT22;1016;48.770;9.154;2023-03-09T15:48:30;15.10;99.90
2024;DHT22;1016;48.770;9.154;2023-03-09T15:50:56;15.00;99.90
2024;DHT22;1016;48.770;9.154;2023-03-09T15:53:21;15.00;99.90
2024;DHT22;1016;48.770;9.154;2023-03-09T15:56:02;14.90;99.90
2024;DHT22;1016;48.770;9.154;2023-03-09T15:58:28;14.90;99.90
2024;DHT22;1016;48.770;9.154;2023-03-09T16:01:01;14.90;99.90
2024;DHT22;1016;48.770;9.154;2023-03-09T16:03:28;14.80;99.90
2024;DHT22;1016;48.770;9.154;2023-03-09T16:05:54;14.70;99.90
2024;DHT22;1016;48.770;9.154;2023-03-09T16:08:20;14.60;99.90
2024;DHT22;1016;48.770;9.154;2023-03-09T16:10:45;14.50;99.90
2024;DHT22;1016;48.770;9.154;2023-03-09T16:13:11;14.30;99.90
2024;DHT22;1016;48.770;9.154;2023-03-09T16:15:38;14.20;99.90
2024;DHT22;1016;48.770;9.154;2023-03-09T16:18:04;14.20;99.90
2024;DHT22;1016;48.770;9.154;2023-03-09T16:20:31;14.20;99.90
2024;DHT22;1016;48.770;9.154;2023-03-09T16:22:56;14.10;99.90
2024;DHT22;1016;48.770;9.154;2023-03-09T16:25:22;14.00;99.90
2024;DHT22;1016;48.770;9.154;2023-03-09T16:27:47;14.00;99.90
2024;DHT22;1016;48.770;9.154;2023-03-09T16:30:13;14.00;99.90
2024;DHT22;1016;48.770;9.154;2023-03-09T16:32:39;13.90;99.90
2024;DHT22;1016;48.770;9.154;2023-03-09T16:35:07;13.90;99.90
2024;DHT22;1016;48.770;9.154;2023-03-09T16:37:33;13.80;99.90
2024;DHT22;1016;48.770;9.154;2023-03-09T16:39:59;13.80;99.90
2024;DHT22;1016;48.770;9.154;2023-03-09T16:42:25;13.70;99.90
2024;DHT22;1016;48.770;9.154;2023-03-09T16:44:51;13.70;99.90
2024;DHT22;1016;48.770;9.154;2023-03-09T16:47:19;13.70;99.90
2024;DHT22;1016;48.770;9.154;2023-03-09T16:49:47;13.70;99.90
2024;DHT22;1016;48.770;9.154;2023-03-09T16:52:12;13.60;99.90
2024;DHT22;1016;48.770;9.154;2023-03-09T16:54:38;13.60;99.90
2024;DHT22;1016;48.770;9.154;2023-03-09T16:57:04;13.60;99.90
2024;DHT22;1016;48.770;9.154;2023-03-09T16:59:29;13.70;99.90
2024;DHT22;1016;48.770;9.154;2023-03-09T17:01:55;13.60;99.90
2024;DHT22;1016;48.770;9.154;2023-03-09T17:04:22;13.50;99.90
2024;DHT22;1016;48.770;9.154;2023-03-09T17:06:47;13.40;99.90
2024;DHT22;1016;48.770;9.154;2023-03-09T17:09:16;13.30;99.90
2024;DHT22;1016;48.770;9.154;2023-03-09T17:11:42;13.30;99.90
2024;DHT22;1016;48.770;9.154;2023-03-09T17:14:07;13.20;99.90
2024;DHT22;1016;48.770;9.154;2023-03-09T17:16:36;13.10;99.90
2024;DHT22;1016;48.770;9.154;2023-03-09T17:19:02;13.00;99.90
2024;DHT22;1016;48.770;9.154;2023-03-09T17:21:28;12.90;99.90
2024;DHT22;1016;48.770;9.154;2023-03-09T17:23:54;12.80;99.90
2024;DHT22;1016;48.770;9.154;2023-03-09T17:26:20;12.70;99.90
2024;DHT22;1016;48.770;9.154;2023-03-09T17:28:46;12.70;99.90
2024;DHT22;1016;48.770;9.154;2023-03-09T17:31:17;12.60;99.90
2024;DHT22;1016;48.770;9.154;2023-03-09T17:33:43;12.50;99.90
2024;DHT22;1016;48.770;9.154;2023-03-09T17:36:09;12.40;99.90